Data for 03/18/2005

Time Sea-Level Adjusted Pressure Absolute Pressure Temperature Relative Humidity Dew Point   
(mb) (inHg) (mb) (inHg) (C) (F) (%) (C) (F)
00:05 1011 29.85 841 24.83 -5.5 22.2 92 -6.6 20.2
00:10 1011 29.85 841 24.83 -5.6 22 93 -6.5 20.2
00:15 1011 29.85 841 24.83 -5.4 22.3 92 -6.6 20.2
00:20 1011 29.85 841 24.83 -5.3 22.5 91 -6.5 20.3
00:25 1011 29.85 841 24.83 -5.3 22.4 92 -6.4 20.4
00:30 1011 29.85 840 24.81 -5.4 22.2 93 -6.5 20.4
00:35 1011 29.85 840 24.81 -5.5 22.1 92 -6.6 20.2
00:40 1011 29.85 840 24.81 -5.6 21.9 93 -6.5 20.3
00:45 1011 29.85 840 24.81 -5.8 21.6 94 -6.7 20
00:50 1011 29.85 840 24.81 -5.8 21.5 94 -6.6 20.1
00:55 1011 29.85 840 24.81 -5.9 21.4 95 -6.6 20.1
01:00 1011 29.85 840 24.81 -5.9 21.4 95 -6.6 20.1
01:05 1011 29.85 840 24.81 -6 21.2 95 -6.6 20.1
01:10 1011 29.85 840 24.81 -6 21.2 96 -6.6 20.1
01:15 1011 29.85 840 24.81 -6.1 21.1 96 -6.6 20
01:20 1011 29.85 840 24.81 -5.9 21.3 95 -6.6 20.1
01:25 1011 29.85 841 24.83 -5.9 21.4 95 -6.6 20.1
01:30 1011 29.85 840 24.81 -5.8 21.5 95 -6.5 20.2
01:35 1011 29.85 840 24.81 -5.7 21.7 95 -6.4 20.5
01:40 1011 29.85 841 24.83 -5.7 21.7 94 -6.5 20.3
01:45 1011 29.85 841 24.83 -5.6 21.9 94 -6.4 20.5
01:50 1011 29.85 841 24.83 -5.5 22.1 94 -6.4 20.5
01:55 1011 29.85 841 24.83 -5.4 22.2 94 -6.3 20.6
02:00 1011 29.85 841 24.83 -5.3 22.4 93 -6.3 20.7
02:05 1011 29.85 841 24.83 -5.4 22.3 93 -6.4 20.5
02:10 1011 29.85 841 24.83 -5.5 22.1 93 -6.5 20.2
02:15 1011 29.85 841 24.83 -5.6 22 94 -6.4 20.4
02:20 1011 29.85 840 24.81 -5.5 22.2 94 -6.3 20.7
02:25 1011 29.85 840 24.81 -5.5 22.2 95 -6.2 20.8
02:30 1011 29.85 840 24.81 -5.3 22.4 94 -6.2 20.9
02:35 1011 29.85 840 24.81 -5.3 22.5 93 -6.2 20.9
02:40 1011 29.85 840 24.81 -5.3 22.5 93 -6.2 20.8
02:45 1011 29.85 840 24.81 -5.3 22.4 92 -6.5 20.4
02:50 1011 29.85 840 24.81 -5.5 22.1 93 -6.5 20.3
02:55 1011 29.85 840 24.81 -5.6 21.8 93 -6.6 20.1
03:00 1011 29.85 840 24.81 -5.8 21.6 93 -6.7 19.9
03:05 1011 29.85 840 24.81 -5.9 21.3 94 -6.7 19.9
03:10 1011 29.85 840 24.81 -6 21.2 95 -6.7 19.9
03:15 1011 29.85 840 24.81 -6.1 21.1 95 -6.8 19.8
03:20 1011 29.85 840 24.81 -6.1 21 96 -6.7 20
03:25 1011 29.85 840 24.81 -6.1 21.1 96 -6.6 20.1
03:30 1011 29.85 840 24.81 -6.1 21.1 96 -6.6 20.1
03:35 1011 29.85 840 24.81 -6.1 21.1 95 -6.8 19.8
03:40 1011 29.85 840 24.81 -6.2 20.9 94 -7 19.5
03:45 1011 29.85 840 24.81 -6.1 21 94 -7 19.5
03:50 1011 29.85 840 24.81 -6 21.2 93 -6.9 19.5
03:55 1011 29.85 840 24.81 -6 21.1 94 -6.9 19.6
04:00 1011 29.85 840 24.81 -6 21.3 94 -6.8 19.7
04:05 1011 29.85 840 24.81 -6 21.2 95 -6.7 19.9
04:10 1011 29.85 840 24.81 -6 21.2 95 -6.7 19.9
04:15 1011 29.85 840 24.81 -5.9 21.3 95 -6.7 20
04:20 1011 29.85 840 24.81 -5.8 21.5 95 -6.6 20.2
04:25 1011 29.85 840 24.81 -5.9 21.4 95 -6.6 20.1
04:30 1011 29.85 840 24.81 -6 21.1 96 -6.6 20
04:35 1011 29.85 840 24.81 -5.9 21.3 95 -6.7 20
04:40 1011 29.85 840 24.81 -5.9 21.4 94 -6.7 19.9
04:45 1011 29.85 840 24.81 -5.9 21.4 94 -6.7 19.9
04:50 1011 29.85 840 24.81 -5.9 21.3 94 -6.7 19.9
04:55 1011 29.85 840 24.81 -6.1 21.1 95 -6.7 19.9
05:00 1011 29.85 840 24.81 -6 21.1 94 -6.8 19.7
05:05 1011 29.85 840 24.81 -6.1 21 95 -6.8 19.7
05:10 1011 29.85 840 24.81 -6.3 20.7 95 -6.9 19.5
05:15 1011 29.85 840 24.81 -6.2 20.8 95 -6.9 19.6
05:20 1011 29.85 840 24.81 -6.2 20.9 95 -6.9 19.7
05:25 1011 29.85 840 24.81 -6.2 20.8 95 -6.9 19.6
05:30 1011 29.85 840 24.81 -6.2 20.8 94 -7 19.4
05:35 1011 29.85 840 24.81 -6.4 20.5 95 -7.1 19.2
05:40 1011 29.85 840 24.81 -6.4 20.5 95 -7.1 19.3
05:45 1011 29.85 840 24.81 -6.3 20.6 94 -7.2 19.1
05:50 1011 29.85 840 24.81 -6.5 20.3 95 -7.2 19
05:55 1011 29.85 840 24.81 -6.5 20.3 95 -7.1 19.1
06:00 1011 29.85 840 24.81 -6.5 20.3 95 -7.2 19
06:05 1011 29.85 840 24.81 -6.5 20.3 95 -7.2 19.1
06:10 1011 29.85 840 24.81 -6.6 20.1 95 -7.2 19
06:15 1011 29.85 840 24.81 -6.5 20.3 96 -7.1 19.2
06:20 1011 29.85 840 24.81 -6.4 20.5 94 -7.2 19
06:25 1011 29.85 840 24.81 -6.3 20.6 94 -7.1 19.1
06:30 1011 29.85 840 24.81 -6.2 20.9 93 -7.1 19.2
06:35 1011 29.85 840 24.81 -6.2 20.9 93 -7.1 19.2
06:40 1011 29.85 840 24.81 -6.8 19.8 94 -7.6 18.4
06:45 1011 29.85 840 24.81 -7.2 19 95 -7.9 17.8
06:50 1011 29.85 840 24.81 -7.4 18.7 96 -8 17.6
06:55 1011 29.85 840 24.81 -7.4 18.7 97 -7.8 17.9
07:00 1011 29.85 840 24.81 -7.1 19.3 96 -7.7 18.2
07:05 1011 29.85 840 24.81 -7.1 19.1 97 -7.6 18.3
07:10 1011 29.85 840 24.81 -7.1 19.2 97 -7.5 18.4
07:15 1011 29.85 840 24.81 -7 19.3 96 -7.5 18.5
07:20 1011 29.85 840 24.81 -7.1 19.3 94 -7.8 18
07:25 1011 29.85 840 24.81 -7.1 19.3 91 -8.3 17
07:30 1011 29.85 840 24.81 -7.4 18.8 90 -8.7 16.3
07:35 1011 29.85 840 24.81 -7.4 18.8 90 -8.7 16.4
07:40 1011 29.85 840 24.81 -7.2 19 92 -8.3 17
07:45 1011 29.85 840 24.81 -7.3 18.9 94 -8.1 17.5
07:50 1011 29.85 840 24.81 -7.5 18.5 95 -8.2 17.2
07:55 1011 29.85 840 24.81 -7.7 18.2 96 -8.2 17.3
08:00 1011 29.85 840 24.81 -7.6 18.4 96 -8.1 17.5
08:05 1011 29.85 840 24.81 -7.7 18.1 97 -8.1 17.4
08:10 1011 29.85 840 24.81 -7.6 18.2 96 -8.2 17.3
08:15 1011 29.85 840 24.81 -7.5 18.4 95 -8.3 17.1
08:20 1011 29.85 840 24.81 -7.2 19.1 92 -8.2 17.2
08:25 1011 29.85 840 24.81 -6.9 19.5 92 -8 17.6
08:30 1011 29.85 840 24.81 -6.5 20.3 88 -8.2 17.2
08:35 1011 29.85 840 24.81 -6.1 21 88 -7.8 17.9
08:40 1011 29.85 840 24.81 -6.3 20.6 87 -8.1 17.4
08:45 1011 29.85 840 24.81 -5.7 21.7 82 -8.3 17.1
08:50 1011 29.85 840 24.81 -5 23 79 -8.1 17.4
08:55 1010 29.83 840 24.81 -4.4 24 76 -8 17.5
09:00 1010 29.83 840 24.81 -4.4 24.1 75 -8.1 17.4
09:05 1010 29.83 840 24.81 -4.7 23.5 76 -8.3 17.1
09:10 1010 29.83 840 24.81 -4.6 23.8 76 -8.2 17.2
09:15 1010 29.83 840 24.81 -3.3 26.1 68 -8.3 17
09:20 1010 29.83 840 24.81 -2.6 27.4 66 -8.1 17.4
09:25 1010 29.83 840 24.81 -2.4 27.7 64 -8.3 17.1
09:30 1010 29.83 840 24.81 -2.7 27.2 66 -8.2 17.2
09:35 1010 29.83 840 24.81 -1.9 28.5 63 -8 17.6
09:40 1010 29.83 840 24.81 -1.7 28.9 64 -7.7 18.1
09:45 1010 29.83 839 24.78 -1.6 29.2 61 -8.1 17.3
09:50 1010 29.83 839 24.78 -1 30.2 60 -7.9 17.8
09:55 1010 29.83 839 24.78 -0.7 30.7 59 -7.7 18.1
10:00 1010 29.83 839 24.78 -0.4 31.4 58 -7.7 18.2
10:05 1010 29.83 839 24.78 -0.4 31.3 59 -7.6 18.4
10:10 1010 29.83 839 24.78 -0.3 31.4 60 -7.2 19.1
10:15 1010 29.83 839 24.78 -0.2 31.6 59 -7.4 18.7
10:20 1010 29.83 839 24.78 0.2 32.4 58 -7 19.4
10:25 1010 29.83 839 24.78 0.3 32.6 63 -6 21.2
10:30 1010 29.83 839 24.78 0.1 32.2 63 -6.1 21.1
10:35 1010 29.83 839 24.78 0.3 32.6 64 -5.8 21.6
10:40 1010 29.83 839 24.78 0.2 32.4 64 -5.9 21.4
10:45 1010 29.83 839 24.78 0.3 32.6 64 -5.7 21.8
10:50 1010 29.83 839 24.78 0.8 33.4 56 -6.9 19.5
10:55 1010 29.83 839 24.78 1 33.8 55 -7.1 19.2
11:00 1009 29.8 839 24.78 0.9 33.7 58 -6.5 20.3
11:05 1009 29.8 839 24.78 1.5 34.8 54 -6.7 19.9
11:10 1009 29.8 839 24.78 1.9 35.4 49 -7.8 18
11:15 1009 29.8 838 24.75 2.1 35.8 52 -6.8 19.7
11:20 1009 29.8 838 24.75 1.8 35.2 54 -6.5 20.4
11:25 1009 29.8 838 24.75 1.2 34.2 51 -7.9 17.8
11:30 1009 29.8 838 24.75 0.9 33.6 55 -7.3 18.9
11:35 1009 29.8 838 24.75 2.3 36.1 49 -7.5 18.5
11:40 1009 29.8 838 24.75 2.3 36.2 45 -8.3 17.1
11:45 1009 29.8 838 24.75 1.9 35.5 47 -8.1 17.3
11:50 1009 29.8 838 24.75 1.5 34.6 48 -8.5 16.7
11:55 1009 29.8 838 24.75 2 35.7 42 -9.7 14.5
12:00 1009 29.8 838 24.75 2.6 36.6 44 -8.4 16.8
12:05 1009 29.8 838 24.75 1.8 35.2 47 -8.4 16.9
12:10 1009 29.8 838 24.75 1.5 34.6 47 -8.6 16.5
12:15 1009 29.8 838 24.75 1.5 34.7 48 -8.5 16.7
12:20 1009 29.8 838 24.75 1.7 35 49 -7.9 17.8
12:25 1009 29.8 838 24.75 2.3 36.1 42 -9.5 15
12:30 1008 29.77 838 24.75 2.8 37 38 -10.2 13.7
12:35 1008 29.77 838 24.75 3.5 38.4 38 -9.6 14.7
12:40 1008 29.77 838 24.75 3.9 39.1 39 -8.7 16.3
12:45 1008 29.77 837 24.72 4.5 40.2 37 -8.9 16
12:50 1008 29.77 837 24.72 4 39.1 35 -10.2 13.6
12:55 1008 29.77 837 24.72 3.7 38.7 38 -9.4 15
13:00 1008 29.77 837 24.72 4 39.3 33 -10.7 12.7
13:05 1008 29.77 837 24.72 4.5 40 33 -10.4 13.4
13:10 1008 29.77 837 24.72 4.3 39.8 34 -10.3 13.5
13:15 1008 29.77 837 24.72 4.8 40.6 32 -10.7 12.7
13:20 1008 29.77 837 24.72 4.5 40.1 33 -10.3 13.4
13:25 1008 29.77 837 24.72 3.3 37.9 37 -10.1 13.9
13:30 1008 29.77 837 24.72 3.5 38.3 40 -8.8 16.2
13:35 1008 29.77 837 24.72 3.7 38.7 38 -9.1 15.5
13:40 1008 29.77 837 24.72 3.9 39 35 -10.4 13.3
13:45 1008 29.77 837 24.72 4.6 40.3 33 -10.3 13.4
13:50 1008 29.77 837 24.72 5.1 41.2 35 -9.2 15.4
13:55 1008 29.77 837 24.72 4.3 39.7 37 -9.1 15.7
14:00 1008 29.77 837 24.72 2.8 37.1 44 -8.1 17.4
14:05 1008 29.77 837 24.72 2.7 36.9 43 -8.7 16.3
14:10 1007 29.74 837 24.72 2.8 37.1 41 -9.3 15.2
14:15 1007 29.74 837 24.72 3.5 38.3 39 -9.3 15.3
14:20 1007 29.74 837 24.72 4 39.1 40 -8.5 16.7
14:25 1007 29.74 837 24.72 4 39.1 38 -9 15.8
14:30 1007 29.74 837 24.72 3.7 38.7 39 -9.1 15.7
14:35 1007 29.74 837 24.72 3.1 37.6 40 -9.2 15.4
14:40 1007 29.74 837 24.72 3.6 38.5 40 -8.8 16.2
14:45 1007 29.74 837 24.72 4.2 39.5 36 -9.7 14.5
14:50 1007 29.74 837 24.72 4 39.2 37 -9.4 15.1
14:55 1007 29.74 837 24.72 4 39.2 36 -9.6 14.6
15:00 1007 29.74 837 24.72 4.7 40.4 35 -9.7 14.5
15:05 1007 29.74 837 24.72 4.4 39.8 33 -10.7 12.7
15:10 1007 29.74 837 24.72 4.3 39.8 36 -9.4 15
15:15 1007 29.74 836 24.69 4.1 39.3 38 -9.1 15.6
15:20 1007 29.74 836 24.69 3.4 38 37 -10 14.1
15:25 1007 29.74 836 24.69 3.1 37.7 39 -9.6 14.7
15:30 1007 29.74 836 24.69 3 37.4 39 -9.8 14.4
15:35 1007 29.74 836 24.69 3 37.3 39 -9.7 14.5
15:40 1007 29.74 836 24.69 3.1 37.5 40 -9.2 15.5
15:45 1007 29.74 836 24.69 3.7 38.6 37 -9.7 14.5
15:50 1007 29.74 836 24.69 3.9 39.1 37 -9.4 15.1
15:55 1007 29.74 836 24.69 4.3 39.7 35 -9.8 14.4
16:00 1007 29.74 836 24.69 4.2 39.5 35 -10.1 13.8
16:05 1007 29.74 836 24.69 4 39.2 34 -10.5 13.2
16:10 1007 29.74 836 24.69 4.7 40.4 34 -10.1 13.8
16:15 1007 29.74 836 24.69 4.5 40.1 34 -9.9 14.1
16:20 1007 29.74 836 24.69 4.3 39.7 34 -10.1 13.7
16:25 1007 29.74 836 24.69 4 39.1 36 -9.8 14.4
16:30 1007 29.74 836 24.69 4 39.2 37 -9.5 14.9
16:35 1007 29.74 836 24.69 4 39.3 35 -10 14
16:40 1007 29.74 836 24.69 3.9 39.1 36 -9.8 14.4
16:45 1007 29.74 836 24.69 3.6 38.5 37 -9.6 14.7
16:50 1007 29.74 836 24.69 3.3 38 36 -10.4 13.3
16:55 1007 29.74 836 24.69 3.2 37.7 38 -9.9 14.2
17:00 1007 29.74 836 24.69 3.1 37.6 38 -9.9 14.2
17:05 1007 29.74 836 24.69 3.2 37.7 39 -9.6 14.8
17:10 1007 29.74 836 24.69 3.1 37.6 39 -9.4 15
17:15 1007 29.74 836 24.69 3.1 37.5 40 -9.3 15.3
17:20 1007 29.74 836 24.69 3.1 37.5 40 -9.1 15.6
17:25 1007 29.74 836 24.69 3 37.4 41 -9.1 15.6
17:30 1007 29.74 836 24.69 2.9 37.3 49 -6.7 20
17:35 1007 29.74 836 24.69 2.6 36.6 53 -6.2 20.9
17:40 1007 29.74 836 24.69 2.2 36 57 -5.3 22.4
17:45 1007 29.74 836 24.69 2.1 35.7 59 -5.2 22.6
17:50 1007 29.74 836 24.69 1.9 35.5 59 -5.3 22.4
17:55 1007 29.74 836 24.69 1.9 35.4 59 -5.3 22.5
18:00 1007 29.74 836 24.69 1.9 35.3 59 -5.3 22.5
18:05 1007 29.74 836 24.69 1.8 35.2 60 -5.2 22.7
18:10 1007 29.74 836 24.69 1.8 35.2 60 -5.2 22.7
18:15 1007 29.74 836 24.69 1.7 35.1 60 -5.2 22.7
18:20 1007 29.74 836 24.69 1.7 35 57 -6 21.2
18:25 1007 29.74 836 24.69 1.5 34.7 58 -5.9 21.3
18:30 1007 29.74 836 24.69 1.3 34.3 58 -6.1 21.1
18:35 1007 29.74 836 24.69 1.2 34.1 59 -5.9 21.3
18:40 1007 29.74 836 24.69 1.1 33.9 59 -6 21.2
18:45 1007 29.74 836 24.69 0.9 33.7 62 -5.6 22
18:50 1007 29.74 836 24.69 0.8 33.5 62 -5.6 21.9
18:55 1007 29.74 836 24.69 0.6 33.1 64 -5.5 22.1
19:00 1007 29.74 836 24.69 0.5 32.9 65 -5.3 22.4
19:05 1007 29.74 836 24.69 0.3 32.5 67 -5.1 22.8
19:10 1007 29.74 836 24.69 0.1 32.3 67 -5.2 22.7
19:15 1007 29.74 836 24.69 0.1 32.3 66 -5.5 22.2
19:20 1007 29.74 836 24.69 0.2 32.3 64 -5.9 21.5
19:25 1007 29.74 837 24.72 0.2 32.3 64 -5.8 21.6
19:30 1008 29.77 837 24.72 -0 32 66 -5.6 21.8
19:35 1008 29.77 837 24.72 -0.1 31.8 70 -5 23
19:40 1008 29.77 837 24.72 -0.2 31.6 73 -4.5 24
19:45 1008 29.77 837 24.72 -0.4 31.3 76 -4.2 24.5
19:50 1008 29.77 837 24.72 -0.6 30.9 81 -3.4 25.9
19:55 1008 29.77 837 24.72 -1 30.2 87 -3 26.7
20:00 1008 29.77 837 24.72 -1.2 29.8 89 -2.9 26.8
20:05 1008 29.77 837 24.72 -1.4 29.4 90 -2.8 27
20:10 1008 29.77 837 24.72 -1.5 29.3 92 -2.6 27.3
20:15 1008 29.77 837 24.72 -1.6 29.1 93 -2.6 27.3
20:20 1008 29.77 838 24.75 -1.7 28.9 93 -2.7 27.2
20:25 1008 29.77 837 24.72 -1.7 28.9 94 -2.6 27.3
20:30 1008 29.77 837 24.72 -1.7 28.9 94 -2.6 27.3
20:35 1008 29.77 837 24.72 -1.7 28.9 94 -2.6 27.4
20:40 1008 29.77 837 24.72 -1.8 28.8 94 -2.7 27.2
20:45 1008 29.77 837 24.72 -1.7 28.9 93 -2.8 27
20:50 1008 29.77 837 24.72 -1.6 29.1 92 -2.8 27
20:55 1008 29.77 837 24.72 -1.6 29.2 91 -2.8 26.9
21:00 1008 29.77 837 24.72 -1.5 29.3 90 -2.9 26.8
21:05 1008 29.77 837 24.72 -1.4 29.5 89 -2.9 26.7
21:10 1008 29.77 837 24.72 -1.3 29.6 89 -2.9 26.8
21:15 1008 29.77 837 24.72 -1.3 29.6 89 -2.9 26.8
21:20 1008 29.77 837 24.72 -1.4 29.5 90 -2.9 26.9
21:25 1008 29.77 837 24.72 -1.4 29.4 89 -3 26.7
21:30 1008 29.77 837 24.72 -1.5 29.3 90 -3 26.7
21:35 1008 29.77 837 24.72 -1.6 29.2 90 -3 26.5
21:40 1008 29.77 837 24.72 -1.7 29 89 -3.2 26.3
21:45 1008 29.77 837 24.72 -1.7 28.9 89 -3.3 26
21:50 1008 29.77 837 24.72 -1.7 28.9 89 -3.4 26
21:55 1008 29.77 837 24.72 -1.7 28.9 89 -3.3 26.1
22:00 1008 29.77 837 24.72 -1.7 28.9 88 -3.5 25.7
22:05 1008 29.77 837 24.72 -1.7 29 87 -3.6 25.5
22:10 1008 29.77 837 24.72 -1.6 29.1 86 -3.6 25.5
22:15 1008 29.77 837 24.72 -1.6 29.2 85 -3.7 25.3
22:20 1008 29.77 837 24.72 -1.6 29.1 85 -3.7 25.3
22:25 1008 29.77 837 24.72 -1.6 29.1 84 -3.9 25
22:30 1008 29.77 837 24.72 -1.6 29.2 84 -3.9 24.9
22:35 1008 29.77 837 24.72 -1.6 29.1 83 -4 24.7
22:40 1008 29.77 837 24.72 -1.6 29.1 84 -4 24.7
22:45 1008 29.77 837 24.72 -1.6 29.1 83 -4.1 24.6
22:50 1008 29.77 837 24.72 -1.6 29 83 -4.1 24.5
22:55 1008 29.77 837 24.72 -1.7 29 83 -4.1 24.6
23:00 1008 29.77 837 24.72 -1.7 29 83 -4.1 24.6
23:05 1008 29.77 837 24.72 -1.7 29 83 -4.2 24.5
23:10 1008 29.77 837 24.72 -1.7 28.9 83 -4.2 24.5
23:15 1008 29.77 837 24.72 -1.8 28.8 84 -4.1 24.6
23:20 1008 29.77 837 24.72 -1.8 28.8 84 -4.2 24.5
23:25 1008 29.77 837 24.72 -1.8 28.8 84 -4.2 24.4
23:30 1008 29.77 837 24.72 -1.8 28.8 84 -4.2 24.5
23:35 1008 29.77 837 24.72 -1.8 28.8 84 -4.2 24.5
23:40 1008 29.77 837 24.72 -1.8 28.8 84 -4.1 24.6
23:45 1008 29.77 837 24.72 -1.8 28.7 84 -4.1 24.6
23:50 1008 29.77 837 24.72 -1.8 28.8 85 -4 24.8
23:55 1008 29.77 837 24.72 -1.8 28.7 85 -4 24.9
24:00 1008 29.77 838 24.75 -1.8 28.7 86 -3.9 25